Terminal Aerodrome Forecast
Issued by NWS Bismarck, ND

Home | Current Version | Previous Version | Text Only | Print | Product List | Glossary Off
Versions: 1 2 3 4 5 6 7 8 9 10 11 12 13 14 15 16 17 18 19 20 21 22 23

136
FTUS43 KBIS 220520
TAFBIS
TAF
KBIS 220520Z 2206/2306 10004KT P6SM SKC
     FM221200 16006KT P6SM OVC080
     FM221800 26009KT P6SM SCT250
     FM222000 30011KT P6SM SCT250
     FM222300 33010KT P6SM SCT250
     FM230200 35006KT P6SM FEW250=

USA.gov is the U.S. government's official web portal to all federal, state and local government web resources and services.